Time;durP1;ratioP1;P1;durP2;ratioP2;P2;SDS_P1;SDS_P2;PMS_P1;PMS_P2;Temp;Humidity;BMP_temperature;BMP_pressure;BME280_temperature;BME280_humidity;BME280_pressure;Samples;Min_cycle;Max_cycle;Signal;HPM_P1;HPM_P2
2023/01/24 00:01:12;;;;;;;9.20;7.00;;;3.50;99.90;;;3.27;90.99;102358.28;5051778;28;20232;-65
2023/01/24 00:03:39;;;;;;;6.22;4.25;;;3.50;99.90;;;3.28;91.00;102353.97;5037279;28;20198;-66
2023/01/24 00:06:06;;;;;;;7.22;5.30;;;3.50;99.90;;;3.29;90.23;102351.38;5035058;28;20197;-66
2023/01/24 00:08:33;;;;;;;7.40;5.72;;;3.60;99.90;;;3.32;90.68;102358.22;5050726;28;20193;-66
2023/01/24 00:11:06;;;;;;;9.15;6.85;;;3.60;99.90;;;3.35;90.28;102356.44;5051305;28;20201;-66
2023/01/24 00:13:35;;;;;;;9.20;6.88;;;3.60;99.90;;;3.34;90.47;102361.63;5039850;28;20677;-67
2023/01/24 00:16:18;;;;;;;9.27;5.70;;;3.60;99.90;;;3.32;90.32;102366.81;5014731;28;20689;-66
2023/01/24 00:18:46;;;;;;;10.40;6.88;;;3.60;99.90;;;3.33;90.30;102362.50;5013449;28;20206;-67
2023/01/24 00:21:17;;;;;;;8.18;6.50;;;3.60;99.90;;;3.33;90.14;102355.59;5015242;28;20210;-67
2023/01/24 00:23:48;;;;;;;9.77;6.60;;;3.60;99.90;;;3.33;89.98;102357.31;5018657;28;20214;-66
2023/01/24 00:26:16;;;;;;;8.93;5.68;;;3.60;99.90;;;3.34;89.98;102357.31;5012811;28;20718;-66
2023/01/24 00:28:43;;;;;;;9.18;6.20;;;3.60;99.90;;;3.30;89.97;102352.22;5030965;28;20212;-66
2023/01/24 00:31:10;;;;;;;7.95;6.18;;;3.60;99.90;;;3.28;89.72;102344.50;5031693;28;20333;-66
2023/01/24 00:33:38;;;;;;;10.05;6.72;;;3.50;99.90;;;3.30;90.18;102354.81;5017476;28;20228;-67
2023/01/24 00:36:05;;;;;;;9.23;6.45;;;3.50;99.90;;;3.31;89.56;102357.34;5025003;28;20218;-67
2023/01/24 00:38:32;;;;;;;10.48;7.55;;;3.60;99.90;;;3.30;90.30;102360.78;5021068;28;20252;-66
2023/01/24 00:40:59;;;;;;;8.73;7.53;;;3.50;99.90;;;3.29;90.09;102366.84;5016118;28;20209;-66
2023/01/24 00:43:28;;;;;;;7.80;6.90;;;3.50;99.90;;;3.24;90.17;102357.47;5020840;28;20206;-66
2023/01/24 00:45:55;;;;;;;9.05;7.30;;;3.50;99.90;;;3.25;90.19;102356.59;5012887;28;20234;-66
2023/01/24 00:48:23;;;;;;;9.27;6.70;;;3.50;99.90;;;3.22;90.35;102357.47;5015360;28;20197;-67
2023/01/24 00:50:50;;;;;;;10.65;6.40;;;3.50;99.90;;;3.24;90.24;102360.06;5015282;28;20571;-67
2023/01/24 00:53:19;;;;;;;8.75;6.70;;;3.50;99.90;;;3.27;90.60;102353.13;5029682;28;20616;-66
2023/01/24 00:55:48;;;;;;;8.95;6.50;;;3.50;99.90;;;3.27;89.77;102350.53;5029781;28;20613;-67
2023/01/24 00:58:15;;;;;;;8.68;6.00;;;3.50;99.90;;;3.26;90.43;102353.16;5008932;28;20292;-67
2023/01/24 01:00:42;;;;;;;7.78;6.57;;;3.50;99.90;;;3.28;90.42;102341.91;5034793;28;20209;-67
2023/01/24 01:03:17;;;;;;;9.18;7.05;;;3.50;99.90;;;3.30;89.86;102353.06;5018755;28;20202;-66
2023/01/24 01:05:45;;;;;;;9.65;7.10;;;3.50;99.90;;;3.27;89.86;102353.13;5009499;28;20666;-67
2023/01/24 01:08:12;;;;;;;8.82;5.88;;;3.50;99.90;;;3.29;90.26;102345.34;5020445;28;20194;-66
2023/01/24 01:10:40;;;;;;;8.43;7.05;;;3.50;99.90;;;3.29;90.57;102358.25;5012277;28;20574;-67
2023/01/24 01:13:11;;;;;;;7.57;5.20;;;3.50;99.90;;;3.30;90.22;102358.22;5037612;28;20214;-66
2023/01/24 01:15:38;;;;;;;7.28;5.70;;;3.50;99.90;;;3.30;89.98;102352.22;5033304;28;20631;-67
2023/01/24 01:18:05;;;;;;;6.95;5.18;;;3.50;99.90;;;3.27;89.93;102354.84;5031488;28;20243;-67
2023/01/24 01:20:32;;;;;;;7.72;6.40;;;3.50;99.90;;;3.27;89.95;102360.00;5050425;28;20197;-66
2023/01/24 01:22:59;;;;;;;9.27;6.82;;;3.50;99.90;;;3.24;90.16;102368.63;5024202;28;20212;-66
2023/01/24 01:25:26;;;;;;;10.35;7.10;;;3.50;99.90;;;3.26;90.16;102371.22;5032399;28;20217;-66
2023/01/24 01:27:53;;;;;;;9.63;6.70;;;3.50;99.90;;;3.22;90.00;102367.81;5032278;28;20201;-67
2023/01/24 01:30:20;;;;;;;7.55;6.75;;;3.40;99.90;;;3.24;89.93;102367.81;5033062;28;20219;-67
2023/01/24 01:32:47;;;;;;;8.82;7.30;;;3.40;99.90;;;3.27;89.87;102362.59;5030016;28;20200;-67
2023/01/24 01:35:14;;;;;;;9.05;6.57;;;3.50;99.90;;;3.25;90.25;102372.06;5043548;28;20229;-67
2023/01/24 01:37:40;;;;;;;8.55;6.35;;;3.50;99.90;;;3.26;90.09;102374.63;5033395;28;20731;-66
2023/01/24 01:40:09;;;;;;;8.75;6.90;;;3.50;99.90;;;3.28;89.71;102372.88;5032388;28;20284;-66
2023/01/24 01:42:51;;;;;;;9.65;6.53;;;3.50;99.90;;;3.29;89.91;102376.31;5035590;28;20617;-66
2023/01/24 01:45:52;;;;;;;7.40;5.05;;;3.50;99.90;;;3.30;88.97;102381.44;5031158;28;20612;-66
2023/01/24 01:48:39;;;;;;;9.95;6.80;;;3.60;99.90;;;3.32;88.99;102382.28;5032073;28;20322;-66
2023/01/24 01:51:32;;;;;;;8.65;5.82;;;3.60;99.90;;;3.31;88.78;102384.88;5051771;28;20194;-66
2023/01/24 01:54:15;;;;;;;7.93;5.55;;;3.60;99.90;;;3.33;89.22;102380.53;5054078;28;20300;-66
2023/01/24 01:56:52;;;;;;;7.88;5.53;;;3.60;99.90;;;3.31;88.94;102384.88;5037200;28;20231;-67
2023/01/24 01:59:30;;;;;;;7.82;6.38;;;3.60;99.90;;;3.31;89.14;102379.72;5020735;28;20211;-66
2023/01/24 02:01:58;;;;;;;8.82;6.50;;;3.60;99.90;;;3.35;89.51;102376.22;5036938;28;20212;-66
2023/01/24 02:04:33;;;;;;;7.80;4.35;;;3.60;99.90;;;3.34;88.94;102379.69;5053280;28;20229;-67
2023/01/24 02:07:16;;;;;;;8.75;6.57;;;3.60;99.90;;;3.37;88.79;102387.38;5035505;28;20201;-66
2023/01/24 02:09:47;;;;;;;4.57;3.78;;;3.60;99.90;;;3.36;88.89;102399.44;5040380;28;20190;-67
2023/01/24 02:12:23;;;;;;;9.73;6.70;;;3.60;99.90;;;3.37;88.25;102392.53;5035982;28;20197;-66
2023/01/24 02:17:44;;;;;;;9.95;6.25;;;3.60;99.90;;;3.33;88.78;102402.03;5037577;28;20202;-66
2023/01/24 02:20:48;;;;;;;9.57;5.50;;;3.60;99.90;;;3.32;88.51;102399.50;5034816;28;20755;-66
2023/01/24 02:23:22;;;;;;;9.07;5.60;;;3.60;99.90;;;3.31;88.41;102402.94;4999257;28;20212;-66
2023/01/24 02:26:20;;;;;;;9.25;5.72;;;3.60;99.90;;;3.32;88.78;102404.66;5043487;28;20228;-66
2023/01/24 02:29:20;;;;;;;9.65;5.82;;;3.60;99.90;;;3.34;88.76;102402.91;5053305;28;20201;-66
2023/01/24 02:31:58;;;;;;;7.47;5.70;;;3.60;99.90;;;3.33;89.21;102414.94;5009718;28;20555;-66
2023/01/24 02:34:27;;;;;;;7.85;5.78;;;3.60;99.90;;;3.33;89.30;102407.22;5046529;22;20221;-67
2023/01/24 02:36:59;;;;;;;7.30;5.57;;;3.60;99.90;;;3.34;89.04;102423.56;5012968;28;20201;-65
2023/01/24 02:39:45;;;;;;;4.72;3.50;;;3.60;99.90;;;3.34;88.92;102405.50;5013361;28;20199;-65
2023/01/24 02:42:15;;;;;;;6.82;4.18;;;3.60;99.90;;;3.36;88.73;102406.31;4993908;28;20214;-65
2023/01/24 02:45:09;;;;;;;8.60;5.95;;;3.60;99.90;;;3.35;88.17;102414.91;5012998;28;20230;-68
2023/01/24 02:47:43;;;;;;;8.75;5.35;;;3.60;99.90;;;3.29;88.49;102423.59;5013663;28;20205;-64
2023/01/24 02:50:10;;;;;;;8.73;5.68;;;3.60;99.90;;;3.30;88.74;102424.47;5012443;28;20207;-67
2023/01/24 02:55:24;;;;;;;8.50;6.30;;;3.50;99.90;;;3.29;88.85;102420.16;5012864;28;20598;-69
2023/01/24 02:58:07;;;;;;;8.85;5.82;;;3.60;99.90;;;3.31;88.67;102424.44;5003537;28;20663;-66
2023/01/24 03:00:40;;;;;;;9.85;5.93;;;3.60;99.90;;;3.33;88.51;102422.69;5013663;28;20220;-65
2023/01/24 03:03:09;;;;;;;8.38;6.47;;;3.60;99.90;;;3.36;88.66;102426.97;5014158;28;20218;-65
2023/01/24 03:05:55;;;;;;;1.40;1.13;;;3.60;99.90;;;3.37;88.64;102431.22;5012639;28;20359;-66
2023/01/24 03:08:28;;;;;;;7.63;5.65;;;3.60;99.90;;;3.36;88.14;102435.56;5013685;28;20191;-66
2023/01/24 03:10:56;;;;;;;7.93;5.22;;;3.60;99.90;;;3.33;88.55;102433.00;5012495;28;20191;-66
2023/01/24 03:35:55;;;;;;;6.80;4.72;;;3.60;99.90;;;3.36;88.71;102414.91;5012405;28;20242;-65
2023/01/24 03:41:10;;;;;;;7.63;4.78;;;3.60;99.90;;;3.38;89.11;102427.78;5010772;28;20198;-66
2023/01/24 03:43:45;;;;;;;8.07;4.78;;;3.60;99.90;;;3.38;88.81;102422.63;5011884;28;20206;-65
2023/01/24 03:46:12;;;;;;;8.48;5.05;;;3.60;99.90;;;3.41;88.52;102427.75;5012558;28;20599;-65
2023/01/24 03:48:39;;;;;;;9.55;4.90;;;3.70;99.90;;;3.43;89.05;102429.41;5011736;28;20619;-64
2023/01/24 03:53:51;;;;;;;2.92;2.72;;;3.70;99.90;;;3.50;88.01;102425.03;5013071;28;20213;-65
2023/01/24 03:56:18;;;;;;;6.75;5.05;;;3.80;99.90;;;3.50;88.13;102430.19;5012012;28;20608;-69
2023/01/24 03:58:45;;;;;;;7.65;5.68;;;3.80;99.90;;;3.49;87.49;102424.16;5012615;28;20198;-65
2023/01/24 04:01:11;;;;;;;7.22;4.68;;;3.80;99.90;;;3.51;87.94;102416.41;5012604;28;20214;-65
2023/01/24 04:03:39;;;;;;;5.68;5.07;;;3.80;99.90;;;3.50;87.81;102418.16;5011813;28;20202;-66
2023/01/24 04:06:06;;;;;;;11.23;6.40;;;3.80;99.90;;;3.49;86.80;102423.34;5012135;28;20222;-66
2023/01/24 04:08:33;;;;;;;8.02;5.63;;;3.80;99.90;;;3.53;87.15;102420.69;5011022;28;20205;-65
2023/01/24 04:11:00;;;;;;;4.60;3.03;;;3.80;99.90;;;3.52;87.49;102418.13;5003328;28;20192;-67
2023/01/24 04:13:27;;;;;;;7.78;5.38;;;3.80;99.90;;;3.52;87.75;102402.63;4997174;28;20614;-65
2023/01/24 04:15:54;;;;;;;7.90;5.70;;;3.80;99.90;;;3.47;87.09;102402.69;5011939;28;20272;-71
2023/01/24 04:18:21;;;;;;;6.03;4.93;;;3.80;99.90;;;3.45;87.29;102407.03;5007445;28;20218;-66
2023/01/24 04:20:48;;;;;;;6.38;4.32;;;3.70;99.90;;;3.46;87.18;102413.03;5011445;28;20206;-66
2023/01/24 04:23:14;;;;;;;7.57;3.65;;;3.70;99.90;;;3.47;87.66;102407.84;5012429;28;20206;-68
2023/01/24 04:25:41;;;;;;;8.05;4.50;;;3.80;99.90;;;3.46;87.27;102415.63;5008975;28;20610;-66
2023/01/24 04:28:08;;;;;;;9.00;4.82;;;3.70;99.90;;;3.46;87.18;102419.06;5012436;28;20196;-64
2023/01/24 04:30:35;;;;;;;5.55;4.20;;;3.70;99.90;;;3.41;87.82;102415.69;5003969;28;20207;-66
2023/01/24 04:33:02;;;;;;;6.45;5.18;;;3.70;99.90;;;3.40;87.29;102408.84;5011032;28;20734;-66
2023/01/24 04:35:29;;;;;;;11.55;5.35;;;3.60;99.90;;;3.43;87.27;102407.94;5011745;28;20245;-64
2023/01/24 04:38:01;;;;;;;7.72;4.97;;;3.70;99.90;;;3.47;86.91;102410.44;5011492;28;20947;-66
2023/01/24 04:40:28;;;;;;;7.93;4.22;;;3.70;99.90;;;3.50;86.77;102409.53;5011868;28;20203;-66
2023/01/24 04:42:56;;;;;;;8.15;5.40;;;3.80;99.90;;;3.49;87.20;102410.44;5011737;28;20328;-67
2023/01/24 04:45:24;;;;;;;7.82;4.85;;;3.70;99.90;;;3.49;87.51;102400.94;5011515;28;20226;-66
2023/01/24 04:47:53;;;;;;;8.25;5.60;;;3.70;99.90;;;3.50;86.52;102404.38;5010745;28;20668;-66
2023/01/24 04:50:21;;;;;;;6.53;4.90;;;3.80;99.90;;;3.52;87.19;102405.22;5010570;28;20671;-66
2023/01/24 04:52:48;;;;;;;6.78;5.75;;;3.80;99.90;;;3.51;86.91;102411.25;4995070;28;20202;-66
2023/01/24 04:55:17;;;;;;;9.05;5.07;;;3.80;99.90;;;3.51;87.17;102413.84;5007195;28;20219;-67
2023/01/24 04:57:45;;;;;;;6.32;4.68;;;3.80;99.90;;;3.49;86.86;102402.69;5009319;28;20199;-66
2023/01/24 05:00:12;;;;;;;7.65;4.20;;;3.80;99.90;;;3.46;86.63;102405.31;5003486;28;20260;-66
2023/01/24 05:02:39;;;;;;;4.35;3.22;;;3.70;99.90;;;3.45;87.10;102407.03;5010740;28;20248;-66
2023/01/24 05:05:07;;;;;;;6.53;5.40;;;3.70;99.90;;;3.42;86.93;102401.06;5011834;28;20336;-67
2023/01/24 05:07:34;;;;;;;6.53;4.05;;;3.70;99.90;;;3.42;87.14;102401.94;5010053;28;20207;-66
2023/01/24 05:10:01;;;;;;;7.63;5.50;;;3.70;99.90;;;3.40;86.75;102406.25;5001116;28;20214;-66
2023/01/24 05:12:27;;;;;;;6.22;5.63;;;3.70;99.90;;;3.43;86.71;102402.78;5005955;28;20689;-68
2023/01/24 05:14:54;;;;;;;7.90;6.10;;;3.70;99.90;;;3.43;87.18;102397.63;5011436;28;20222;-66
2023/01/24 05:17:21;;;;;;;7.40;6.25;;;3.70;99.90;;;3.39;87.00;102407.13;4997957;28;20695;-66
2023/01/24 05:19:48;;;;;;;6.30;5.30;;;3.70;99.90;;;3.42;86.79;102406.22;5000851;28;20214;-69
2023/01/24 05:22:15;;;;;;;7.05;5.75;;;3.70;99.90;;;3.38;87.31;102404.56;5010327;28;20206;-66
2023/01/24 05:24:42;;;;;;;9.50;6.10;;;3.70;99.90;;;3.39;87.91;102414.00;5012060;28;20222;-68
2023/01/24 05:27:10;;;;;;;6.85;5.70;;;3.60;99.90;;;3.38;87.55;102410.59;5014433;28;20226;-65
2023/01/24 05:29:36;;;;;;;9.13;5.00;;;3.60;99.90;;;3.40;87.61;102418.28;5016040;28;20551;-66
2023/01/24 05:32:04;;;;;;;6.22;4.88;;;3.70;99.90;;;3.35;87.60;102422.66;5015186;28;20198;-67
2023/01/24 05:34:31;;;;;;;6.00;5.40;;;3.60;99.90;;;3.38;87.37;102427.78;5014961;28;20210;-67
2023/01/24 05:36:57;;;;;;;6.10;5.00;;;3.60;99.90;;;3.38;87.63;102420.06;5015184;28;20670;-65
2023/01/24 05:39:24;;;;;;;5.85;5.03;;;3.70;99.90;;;3.41;87.40;102418.25;5015037;28;20206;-67
2023/01/24 05:41:51;;;;;;;5.25;4.75;;;3.70;99.90;;;3.42;87.44;102427.72;5015643;28;20726;-66
2023/01/24 05:44:23;;;;;;;5.50;4.20;;;3.70;99.90;;;3.41;87.36;102438.09;5014679;28;20210;-66
2023/01/24 05:46:50;;;;;;;6.65;5.60;;;3.70;99.90;;;3.42;87.04;102425.16;5015307;28;20346;-70
2023/01/24 05:49:20;;;;;;;6.55;5.60;;;3.70;99.90;;;3.44;87.14;102438.03;5013394;28;20209;-66
2023/01/24 05:51:47;;;;;;;6.43;5.82;;;3.70;99.90;;;3.43;87.19;102441.50;5014386;28;20252;-66
2023/01/24 05:54:14;;;;;;;7.13;5.57;;;3.70;99.90;;;3.43;87.52;102438.91;5014813;28;20222;-66
2023/01/24 05:56:41;;;;;;;6.05;3.10;;;3.70;99.90;;;3.37;87.42;102445.00;5015526;28;20210;-67
2023/01/24 05:59:10;;;;;;;6.25;5.30;;;3.60;99.90;;;3.39;87.46;102447.53;5013309;28;20209;-66
2023/01/24 06:01:37;;;;;;;6.07;5.40;;;3.70;99.90;;;3.43;87.24;102459.56;5009774;28;20672;-66
2023/01/24 06:04:04;;;;;;;5.63;4.40;;;3.70;99.90;;;3.42;87.26;102453.53;5013576;28;20210;-67
2023/01/24 06:06:32;;;;;;;5.38;4.88;;;3.70;99.90;;;3.42;87.29;102463.84;5014045;28;20690;-66
2023/01/24 06:09:00;;;;;;;6.72;5.68;;;3.70;99.90;;;3.44;87.27;102453.50;5011879;28;20770;-65
2023/01/24 06:11:28;;;;;;;6.13;3.75;;;3.70;99.90;;;3.44;87.22;102469.00;5000104;28;20722;-68
2023/01/24 06:13:55;;;;;;;5.15;3.95;;;3.70;99.90;;;3.44;87.08;102472.44;4994710;28;20294;-67
2023/01/24 06:16:24;;;;;;;6.25;4.50;;;3.70;99.90;;;3.44;87.79;102477.59;5006172;28;20223;-69
2023/01/24 06:18:54;;;;;;;7.18;5.00;;;3.70;99.90;;;3.46;87.20;102470.69;5012503;28;20198;-68
2023/01/24 06:21:40;;;;;;;7.95;5.68;;;3.70;99.90;;;3.45;87.81;102483.63;5004572;28;20198;-67
2023/01/24 06:24:21;;;;;;;5.65;4.40;;;3.70;99.90;;;3.44;87.50;102474.16;5013996;28;20209;-66
2023/01/24 06:26:51;;;;;;;7.65;5.40;;;3.70;99.90;;;3.42;87.93;102481.06;5013854;28;20574;-66
2023/01/24 06:29:19;;;;;;;5.57;4.80;;;3.70;99.90;;;3.37;87.88;102481.13;5013712;28;20203;-66
2023/01/24 06:32:02;;;;;;;8.93;5.47;;;3.60;99.90;;;3.39;86.99;102479.38;5012591;28;20659;-67
2023/01/24 06:34:44;;;;;;;6.03;4.50;;;3.70;99.90;;;3.38;87.89;102488.00;5014341;28;20254;-65
2023/01/24 06:37:44;;;;;;;6.65;5.00;;;3.70;99.90;;;3.34;87.88;102493.22;5012997;28;20212;-69
2023/01/24 06:40:15;;;;;;;8.18;4.30;;;3.60;99.90;;;3.37;88.12;102500.91;5012278;28;20210;-66
2023/01/24 06:42:42;;;;;;;6.30;5.10;;;3.60;99.90;;;3.36;87.59;102494.91;5003061;28;20253;-65
2023/01/24 06:45:10;;;;;;;7.40;5.35;;;3.60;99.90;;;3.37;87.50;102499.19;5014085;28;20226;-65
2023/01/24 06:47:37;;;;;;;7.63;5.13;;;3.60;99.90;;;3.39;88.05;102505.16;5011412;28;20292;-65
2023/01/24 06:50:13;;;;;;;7.10;5.13;;;3.60;99.90;;;3.40;88.18;102508.63;5012883;28;20198;-66
2023/01/24 06:52:41;;;;;;;8.00;5.20;;;3.70;99.90;;;3.37;88.29;102508.63;4997933;28;20561;-66
2023/01/24 06:55:08;;;;;;;7.82;4.45;;;3.60;99.90;;;3.40;87.96;102517.22;5013395;28;20219;-66
2023/01/24 06:57:36;;;;;;;5.68;4.20;;;3.60;99.90;;;3.41;88.28;102503.44;5013937;28;20249;-65
2023/01/24 07:00:04;;;;;;;11.13;5.55;;;3.70;99.90;;;3.40;88.02;102513.78;5013091;28;20206;-67
2023/01/24 07:02:31;;;;;;;7.80;4.95;;;3.70;99.90;;;3.42;88.18;102507.72;5011917;28;20703;-67
2023/01/24 07:04:58;;;;;;;8.65;5.38;;;3.70;99.90;;;3.44;87.44;102512.88;5013149;28;20227;-67
2023/01/24 07:07:25;;;;;;;7.07;4.28;;;3.70;99.90;;;3.44;88.03;102518.88;5012336;28;20369;-68
2023/01/24 07:09:52;;;;;;;6.53;4.28;;;3.70;99.90;;;3.46;88.06;102518.84;5012859;28;20207;-67
2023/01/24 07:12:19;;;;;;;7.47;5.10;;;3.70;99.90;;;3.46;87.67;102518.84;5013277;28;20198;-66
2023/01/24 07:14:50;;;;;;;7.15;5.05;;;3.70;99.90;;;3.43;88.00;102524.06;5013114;28;20219;-68
2023/01/24 07:17:17;;;;;;;8.70;4.90;;;3.70;99.90;;;3.45;87.92;102519.75;5012739;28;20261;-66
2023/01/24 07:19:44;;;;;;;7.50;4.90;;;3.70;99.90;;;3.45;88.09;102518.00;5014067;28;20234;-66
2023/01/24 07:22:13;;;;;;;8.80;5.68;;;3.70;99.90;;;3.46;88.21;102516.28;5014402;28;20290;-66
2023/01/24 07:24:44;;;;;;;9.60;5.90;;;3.70;99.90;;;3.47;88.40;102523.16;5012903;28;20218;-66
2023/01/24 07:27:13;;;;;;;4.95;3.95;;;3.70;99.90;;;3.48;87.63;102524.84;5006740;28;20249;-65
2023/01/24 07:29:39;;;;;;;6.78;4.95;;;3.70;99.90;;;3.49;87.83;102524.00;5010079;28;20249;-66
2023/01/24 07:32:09;;;;;;;7.45;6.05;;;3.80;99.90;;;3.51;87.90;102530.00;5005686;28;20199;-66
2023/01/24 07:34:38;;;;;;;7.65;4.88;;;3.80;99.90;;;3.49;87.55;102532.56;5010914;28;20222;-66
2023/01/24 07:37:08;;;;;;;8.27;5.88;;;3.70;99.90;;;3.51;87.17;102541.16;5012020;28;20217;-66
2023/01/24 07:39:35;;;;;;;6.22;4.75;;;3.80;99.90;;;3.51;87.65;102541.16;5011898;28;20554;-66
2023/01/24 07:42:02;;;;;;;7.95;4.40;;;3.80;99.90;;;3.54;87.73;102537.66;4996636;28;20207;-67
2023/01/24 07:44:29;;;;;;;8.75;6.20;;;3.80;99.90;;;3.56;87.95;102538.50;5011992;28;20206;-64
2023/01/24 07:46:55;;;;;;;6.55;5.20;;;3.80;99.90;;;3.54;87.66;102535.09;5013344;28;20226;-66
2023/01/24 07:49:22;;;;;;;3.53;3.05;;;3.80;99.90;;;3.57;87.94;102541.09;5011207;28;20199;-68
2023/01/24 07:51:49;;;;;;;5.47;3.60;;;3.80;99.90;;;3.55;87.89;102541.97;5009719;28;20206;-66
2023/01/24 07:54:19;;;;;;;6.95;4.97;;;3.80;99.90;;;3.54;87.88;102540.25;5006701;28;20215;-66
2023/01/24 07:56:46;;;;;;;4.47;2.95;;;3.80;99.90;;;3.57;87.79;102547.97;5003028;28;20682;-66
2023/01/24 07:59:13;;;;;;;8.73;6.00;;;3.80;99.90;;;3.57;87.30;102550.56;5012179;28;20273;-68
2023/01/24 08:01:41;;;;;;;23.85;6.90;;;3.90;99.90;;;3.55;87.40;102541.97;5011140;28;20210;-67
2023/01/24 08:04:08;;;;;;;6.93;5.15;;;3.80;99.90;;;3.54;87.95;102546.28;5013275;28;20207;-67
2023/01/24 08:06:35;;;;;;;4.88;2.90;;;3.80;99.90;;;3.52;87.67;102552.31;5012499;28;20711;-67
2023/01/24 08:09:03;;;;;;;8.95;5.68;;;3.70;99.90;;;3.54;88.29;102555.75;5012522;28;20206;-67
2023/01/24 08:11:30;;;;;;;8.55;4.68;;;3.80;99.90;;;3.57;87.91;102546.25;5011777;28;20198;-67
2023/01/24 08:13:57;;;;;;;3.28;2.05;;;3.80;99.90;;;3.59;87.85;102556.53;5009315;28;20235;-66
2023/01/24 08:16:25;;;;;;;14.00;6.10;;;3.80;99.90;;;3.65;87.94;102564.19;4999933;28;20698;-65
2023/01/24 08:18:52;;;;;;;7.40;5.05;;;3.90;99.90;;;3.61;88.16;102570.28;5009185;28;20256;-66
2023/01/24 08:21:19;;;;;;;11.02;6.88;;;3.90;99.90;;;3.62;89.00;102564.25;5007998;28;20946;-64
2023/01/24 08:23:46;;;;;;;5.90;3.22;;;3.90;99.90;;;3.68;88.37;102566.75;5003917;28;20202;-64
2023/01/24 08:26:13;;;;;;;3.10;2.65;;;3.90;99.90;;;3.69;87.80;102569.31;5010463;28;20249;-66
2023/01/24 08:28:40;;;;;;;14.30;4.72;;;4.00;99.90;;;3.72;88.25;102571.00;5011390;28;20209;-67
2023/01/24 08:31:07;;;;;;;8.68;6.32;;;4.00;99.90;;;3.68;88.37;102579.66;5012001;28;20206;-65
2023/01/24 08:33:37;;;;;;;6.70;5.90;;;3.90;99.90;;;3.59;88.80;102575.47;5007864;28;20229;-64
2023/01/24 08:36:05;;;;;;;8.43;6.57;;;3.90;99.90;;;3.61;89.17;102571.16;5012437;28;20218;-65
2023/01/24 08:38:32;;;;;;;9.20;6.63;;;3.90;99.90;;;3.63;88.78;102571.13;5010659;28;20205;-67
2023/01/24 08:41:03;;;;;;;12.30;5.95;;;3.90;99.90;;;3.68;88.92;102579.66;5008728;28;20609;-66
2023/01/24 08:43:31;;;;;;;8.98;4.97;;;3.90;99.90;;;3.69;88.74;102571.03;5010890;28;20195;-64
2023/01/24 08:45:58;;;;;;;6.50;3.88;;;3.90;99.90;;;3.74;88.69;102575.28;5011172;28;20222;-64
2023/01/24 08:48:28;;;;;;;8.43;5.40;;;4.00;99.90;;;3.77;88.62;102571.78;5020041;28;20230;-64
2023/01/24 08:50:55;;;;;;;10.02;4.65;;;4.00;99.90;;;3.76;88.49;102567.50;5007666;28;20199;-62
2023/01/24 08:53:22;;;;;;;10.55;5.95;;;4.00;99.90;;;3.76;89.18;102581.28;5011428;28;20209;-66
2023/01/24 08:55:50;;;;;;;10.30;7.65;;;4.00;99.90;;;3.79;88.62;102568.31;5009900;28;20214;-64
2023/01/24 08:58:16;;;;;;;8.80;5.43;;;4.10;99.90;;;3.78;88.84;102571.78;5010907;28;20260;-65
2023/01/24 09:00:43;;;;;;;9.18;5.85;;;4.00;99.90;;;3.81;88.66;102581.22;5010288;28;20198;-65
2023/01/24 09:03:14;;;;;;;8.38;5.70;;;4.10;99.90;;;3.78;88.69;102568.34;5011825;28;20209;-68
2023/01/24 09:05:41;;;;;;;5.15;2.88;;;4.00;99.90;;;3.83;88.38;102582.06;5009669;28;20274;-65
2023/01/24 09:08:08;;;;;;;10.15;6.75;;;4.10;99.90;;;3.84;88.39;102596.66;5009939;28;20234;-64
2023/01/24 09:10:36;;;;;;;8.40;6.15;;;4.10;99.90;;;3.87;88.47;102583.72;5010803;28;20634;-65
2023/01/24 09:13:04;;;;;;;7.93;4.43;;;4.10;99.90;;;3.90;88.87;102591.41;5008795;28;20191;-66
2023/01/24 09:15:31;;;;;;;7.55;4.13;;;4.10;99.90;;;3.93;88.47;102588.78;5010839;28;20226;-66
2023/01/24 09:18:04;;;;;;;9.45;6.20;;;4.20;99.90;;;3.96;88.63;102580.16;5010813;28;20202;-68
2023/01/24 09:20:31;;;;;;;6.57;4.25;;;4.20;99.90;;;3.98;88.60;102586.16;5011860;28;20234;-65
2023/01/24 09:22:58;;;;;;;5.38;3.75;;;4.20;99.90;;;4.02;88.63;102585.22;5010577;28;20889;-64
2023/01/24 09:25:25;;;;;;;8.25;6.50;;;4.20;99.90;;;4.07;88.07;102584.28;5011337;28;20218;-64
2023/01/24 09:27:54;;;;;;;8.93;7.53;;;4.30;99.90;;;4.11;87.77;102564.44;5009783;28;20216;-65
2023/01/24 09:30:22;;;;;;;8.77;7.10;;;4.40;99.90;;;4.06;88.11;102567.09;5010957;28;20217;-67
2023/01/24 09:32:49;;;;;;;5.35;3.45;;;4.30;99.90;;;4.05;88.71;102569.66;5008304;28;20244;-65
2023/01/24 09:35:16;;;;;;;7.88;5.53;;;4.30;99.90;;;4.07;88.48;102581.69;5011341;28;20222;-64
2023/01/24 09:37:44;;;;;;;13.52;6.72;;;4.30;99.90;;;4.09;87.95;102576.53;5010475;28;20206;-67
2023/01/24 09:40:38;;;;;;;7.80;6.30;;;4.30;99.90;;;4.07;88.11;102591.19;5010765;28;20206;-65
2023/01/24 09:43:41;;;;;;;9.85;6.30;;;4.30;99.90;;;4.09;88.81;102590.28;5008905;28;20203;-66
2023/01/24 09:46:35;;;;;;;10.10;5.15;;;4.30;99.90;;;4.16;88.08;102603.97;5009152;28;20222;-64
2023/01/24 09:49:20;;;;;;;6.63;4.40;;;4.40;99.90;;;4.18;87.89;102607.38;5009661;28;20199;-64
2023/01/24 09:51:51;;;;;;;7.55;5.55;;;4.40;99.90;;;4.18;87.58;102608.25;5006598;28;20203;-68
2023/01/24 09:54:55;;;;;;;6.30;5.50;;;4.40;99.90;;;4.14;87.35;102603.13;4991880;28;20213;-67
2023/01/24 09:57:31;;;;;;;11.70;6.85;;;4.40;99.90;;;4.13;88.58;102598.84;5001407;28;20207;-64
2023/01/24 10:00:12;;;;;;;11.63;5.72;;;4.40;99.90;;;4.15;88.18;102607.44;5009769;28;20218;-65
2023/01/24 10:02:39;;;;;;;8.63;5.15;;;4.40;99.90;;;4.13;88.55;102604.84;5008049;28;20289;-66
2023/01/24 10:05:14;;;;;;;1.45;1.35;;;4.40;99.90;;;4.13;88.54;102606.59;5010357;28;20214;-64
2023/01/24 10:08:20;;;;;;;9.45;5.53;;;4.40;99.90;;;4.18;87.93;102597.91;5008294;28;20237;-64
2023/01/24 10:11:19;;;;;;;6.63;3.63;;;4.40;99.90;;;4.19;87.63;102597.03;4989824;28;20546;-66
2023/01/24 10:14:03;;;;;;;9.60;7.25;;;4.50;99.90;;;4.20;87.82;102595.28;5005027;28;20203;-68
2023/01/24 10:16:51;;;;;;;12.15;7.13;;;4.40;99.90;;;4.18;88.21;102582.41;5013113;28;20309;-67
2023/01/24 10:19:25;;;;;;;10.63;6.70;;;4.40;99.90;;;4.18;88.19;102579.81;5005943;28;20207;-66
2023/01/24 10:22:45;;;;;;;8.85;6.57;;;4.40;99.90;;;4.21;88.50;102590.13;5011163;28;20203;-68
2023/01/24 10:25:25;;;;;;;5.05;2.03;;;4.50;99.90;;;4.23;87.87;102601.28;5011566;28;20790;-68
2023/01/24 10:27:57;;;;;;;7.55;5.25;;;4.50;99.90;;;4.27;87.85;102605.53;5013164;28;20230;-66
2023/01/24 10:30:32;;;;;;;6.30;3.85;;;4.50;99.90;;;4.29;87.54;102596.03;5012279;28;20201;-66
2023/01/24 10:33:03;;;;;;;9.10;5.63;;;4.50;99.90;;;4.32;87.53;102595.13;5010080;28;20322;-65
2023/01/24 10:35:39;;;;;;;10.27;5.43;;;4.60;99.90;;;4.33;87.35;102602.00;5014570;28;21027;-67
2023/01/24 10:38:11;;;;;;;6.85;4.72;;;4.60;99.90;;;4.35;87.71;102610.56;5032482;28;20209;-67
2023/01/24 10:41:23;;;;;;;5.38;3.40;;;4.60;99.90;;;4.37;86.94;102609.69;5024423;28;20207;-66
2023/01/24 10:43:59;;;;;;;9.10;5.38;;;4.60;99.90;;;4.40;87.68;102607.06;5014335;28;20217;-65
2023/01/24 10:46:44;;;;;;;6.28;4.10;;;4.60;99.90;;;4.39;87.00;102610.50;4968993;28;20720;-65
2023/01/24 10:49:23;;;;;;;4.20;2.95;;;4.60;99.90;;;4.41;86.91;102606.16;4814443;29;20219;-67
2023/01/24 10:52:20;;;;;;;7.68;5.88;;;4.60;99.90;;;4.41;86.29;102610.47;4711416;30;20781;-64
2023/01/24 10:55:25;;;;;;;9.77;5.10;;;4.70;99.90;;;4.40;86.17;102604.47;4512029;31;21020;-65
2023/01/24 10:57:53;;;;;;;6.43;3.45;;;4.70;99.90;;;4.42;86.85;102617.38;4451678;31;20234;-64
2023/01/24 11:00:35;;;;;;;7.60;5.15;;;4.70;99.90;;;4.45;86.64;102618.16;5169860;27;20386;-69
2023/01/24 11:03:16;;;;;;;9.20;5.45;;;4.70;99.90;;;4.45;86.36;102613.00;5134323;27;20210;-66
2023/01/24 11:08:42;;;;;;;8.27;6.20;;;4.70;99.90;;;4.33;85.76;102613.19;5073046;27;25126;-66
2023/01/24 11:11:24;;;;;;;6.70;5.15;;;4.60;99.90;;;4.32;85.79;102613.22;5067240;28;20288;-68
2023/01/24 11:13:57;;;;;;;10.85;5.43;;;4.60;99.90;;;4.29;86.83;102601.19;5067715;28;20599;-67
2023/01/24 11:16:34;;;;;;;7.43;4.72;;;4.50;99.90;;;4.32;86.84;102605.47;5061329;28;20298;-66
2023/01/24 11:19:05;;;;;;;7.15;5.43;;;4.60;99.90;;;4.34;86.42;102603.72;5057771;28;20212;-68
2023/01/24 11:21:49;;;;;;;1.15;0.88;;;4.60;99.90;;;4.38;86.30;102611.41;5056850;28;20673;-67